Nyk Olympus — 3EOS7 — position and weather

sailwx.info

Track history (hours):
 
Tides and Currents Weather Stations Pressure Air Temp Water Temp Dewpoint Dewpoint Depression Visibility Wind Speed Wind Dir Waves Ship Positions

Nyk Olympus

Last reported at 2018-Feb-13 00:30 UTC. Time now 2018-Jul-20 10:46 UTC.
Position N 35°36' E 139°46'.
Warning: this ship's position is months out of date.

Length 335 m; draft 12.2 m.

Type: Other ship. MMSI: 372478000.

Date/timePositionNaut miles runAvg speedWind from/ knotsBaromVisibWave heightAir tempDewpointWater temp
2018-Feb-13 00:30N 35°36' E 139°46'0 0.0
2018-Feb-12 23:54N 35°36' E 139°46'0 0.0
2018-Feb-12 23:24N 35°36' E 139°46'0 0.0
2018-Feb-12 22:57N 35°36' E 139°46'0 0.7
2018-Feb-12 22:28N 35°36' E 139°47'3 5.8
2018-Feb-12 22:00N 35°34' E 139°49'4 7.9
2018-Feb-12 21:30N 35°31' E 139°53'611.7
2018-Feb-12 21:00N 35°26' E 139°49'713.3
2018-Feb-12 20:31N 35°21' E 139°45'611.5
2018-Feb-12 20:00N 35°15' E 139°47'612.4
2018-Feb-12 19:30N 35°09' E 139°46'611.5
2018-Feb-12 19:01N 35°04' E 139°44'612.0
2018-Feb-12 18:29N 34°58' E 139°41'611.9
2018-Feb-12 17:59N 34°52' E 139°39'511.3
2018-Feb-12 17:30N 34°47' E 139°36'611.2
2018-Feb-12 17:00N 34°42' E 139°35'31 9.7
2018-Feb-12 13:46N 34°32' E 138°58'511.3
2018-Feb-12 13:20N 34°32' E 138°52'1210.7
2018-Feb-12 12:15N 34°37' E 138°39'310.6
2018-Feb-12 12:00N 34°39' E 138°38'611.2
2018-Feb-12 11:30N 34°44' E 138°37'611.1
2018-Feb-12 11:00N 34°50' E 138°36'611.8
2018-Feb-12 10:30N 34°56' E 138°35'611.8
2018-Feb-12 10:00N 35°01' E 138°33'2 3.4
2018-Feb-12 09:30N 35°02' E 138°31'1 1.1
2018-Feb-12 08:58N 35°02' E 138°31'0 0.0
2018-Feb-12 08:28N 35°02' E 138°31'0 0.0
2018-Feb-12 07:58N 35°02' E 138°31'0 0.0
2018-Feb-12 07:28N 35°02' E 138°31'0 0.0
2018-Feb-12 07:00N 35°02' E 138°31'0 0.0
2018-Feb-12 06:28N 35°02' E 138°31'0 0.0
2018-Feb-12 05:58N 35°02' E 138°31'0 0.0
2018-Feb-12 05:25N 35°02' E 138°31'0 0.0
2018-Feb-12 04:58N 35°02' E 138°31'0 0.0
2018-Feb-12 04:28N 35°02' E 138°31'0 0.0
2018-Feb-12 03:58N 35°02' E 138°31'0 0.0
2018-Feb-12 03:28N 35°02' E 138°31'0 0.0
2018-Feb-12 02:58N 35°02' E 138°31'0 0.0
2018-Feb-12 02:28N 35°02' E 138°31'0 0.0
2018-Feb-12 01:55N 35°02' E 138°31'0 0.0
2018-Feb-12 01:28N 35°02' E 138°31'0 0.0
2018-Feb-12 00:58N 35°02' E 138°31'0 0.0
2018-Feb-12 00:28N 35°02' E 138°31'0 0.0
2018-Feb-11 23:58N 35°02' E 138°31'0 0.0
2018-Feb-11 23:28N 35°02' E 138°31'0 0.0
2018-Feb-11 22:58N 35°02' E 138°31'0 0.0
2018-Feb-11 22:28N 35°02' E 138°31'0 0.0
2018-Feb-11 21:58N 35°02' E 138°31'1 1.8
2018-Feb-11 21:30N 35°02' E 138°31'3 5.6
2018-Feb-11 21:00N 34°59' E 138°33'510.4
2018-Feb-11 20:30N 34°54' E 138°32'612.0
2018-Feb-11 20:00N 34°49' E 138°30'612.2
2018-Feb-11 19:30N 34°43' E 138°28'612.4
2018-Feb-11 18:59N 34°37' E 138°25'612.6
2018-Feb-11 18:30N 34°32' E 138°19'713.1
2018-Feb-11 17:59N 34°29' E 138°13'714.0
2018-Feb-11 17:30N 34°28' E 138°04'815.0
2018-Feb-11 17:00N 34°28' E 137°55'815.9
2018-Feb-11 16:30N 34°28' E 137°46'816.0
2018-Feb-11 16:00N 34°28' E 137°36'815.2
2018-Feb-11 15:30N 34°29' E 137°27'815.3
2018-Feb-11 15:00N 34°29' E 137°18'2814.3
2018-Feb-11 13:04N 34°42' E 136°48'219.3
2018-Feb-11 12:58N 34°44' E 136°47'918.8
2018-Feb-11 12:30N 34°53' E 136°46'715.0
2018-Feb-11 12:00N 34°60' E 136°49'2 3.2
2018-Feb-11 11:30N 35°01' E 136°49'0 0.5
2018-Feb-11 11:00N 35°02' E 136°49'0 0.0
2018-Feb-11 10:30N 35°02' E 136°49'0 0.0
2018-Feb-11 10:00N 35°02' E 136°49'0 0.0
2018-Feb-11 09:24N 35°02' E 136°49'0 0.0
2018-Feb-11 08:54N 35°02' E 136°49'0 0.0
2018-Feb-11 08:30N 35°02' E 136°49'0 0.0
2018-Feb-11 07:48N 35°02' E 136°49'0 0.0
2018-Feb-11 07:30N 35°02' E 136°49'0 0.0
2018-Feb-11 06:48N 35°02' E 136°49'0 0.0
2018-Feb-11 06:24N 35°02' E 136°49'0 0.0
2018-Feb-11 05:54N 35°02' E 136°49'0 0.0
2018-Feb-11 05:21N 35°02' E 136°49'0 0.0
2018-Feb-11 05:00N 35°02' E 136°49'0 0.0
2018-Feb-11 04:30N 35°02' E 136°49'0 0.0
2018-Feb-11 04:01N 35°02' E 136°49'0 0.0
2018-Feb-11 03:18N 35°02' E 136°49'0 0.0
2018-Feb-11 03:00N 35°02' E 136°49'0 0.0
2018-Feb-11 02:27N 35°02' E 136°49'0 0.0
2018-Feb-11 02:00N 35°02' E 136°49'0 0.0
2018-Feb-11 01:31N 35°02' E 136°49'0 0.0
2018-Feb-11 00:54N 35°02' E 136°49'0 0.0
2018-Feb-11 00:24N 35°02' E 136°49'0 0.0
2018-Feb-11 00:00N 35°02' E 136°49'0 0.0
2018-Feb-10 23:30N 35°02' E 136°49'0 0.0
2018-Feb-10 22:54N 35°02' E 136°49'0 0.0
2018-Feb-10 22:30N 35°02' E 136°49'0 0.0
2018-Feb-10 22:00N 35°02' E 136°49'0 0.0
2018-Feb-10 21:30N 35°02' E 136°49'0 0.0
2018-Feb-10 20:55N 35°02' E 136°49'0 0.0
2018-Feb-10 20:30N 35°02' E 136°49'0 0.0
2018-Feb-10 20:00N 35°02' E 136°49'0 0.0
2018-Feb-10 19:30N 35°02' E 136°49'0 0.0
2018-Feb-10 19:00N 35°02' E 136°49'0 0.0
2018-Feb-10 18:30N 35°02' E 136°49'0 0.0
2018-Feb-10 18:00N 35°02' E 136°49'0 0.0
2018-Feb-10 17:30N 35°02' E 136°49'0 0.0
2018-Feb-10 17:00N 35°02' E 136°49'0 0.0
2018-Feb-10 16:18N 35°02' E 136°49'0 0.0
2018-Feb-10 15:54N 35°02' E 136°49'0 0.0
2018-Feb-10 15:30N 35°02' E 136°49'0 0.0
2018-Feb-10 15:00N 35°02' E 136°49'0 0.0
2018-Feb-10 14:30N 35°02' E 136°49'0 0.0
2018-Feb-10 14:00N 35°02' E 136°49'0 0.0
2018-Feb-10 13:30N 35°02' E 136°49'0 0.0
2018-Feb-10 13:00N 35°02' E 136°49'0 0.0
2018-Feb-10 12:24N 35°02' E 136°49'0 0.0
2018-Feb-10 12:00N 35°02' E 136°49'0 0.0
2018-Feb-10 11:25N 35°02' E 136°49'0 0.0
2018-Feb-10 11:00N 35°02' E 136°49'0 0.0
2018-Feb-10 10:30N 35°02' E 136°49'0 0.0
2018-Feb-10 10:00N 35°02' E 136°49'0 0.0
2018-Feb-10 09:30N 35°02' E 136°49'0 0.0
2018-Feb-10 09:00N 35°02' E 136°49'0 0.0
2018-Feb-10 08:30N 35°02' E 136°49'1 2.3
2018-Feb-10 08:00N 35°01' E 136°50'611.1
2018-Feb-10 07:30N 34°56' E 136°47'815.0
2018-Feb-10 07:00N 34°49' E 136°47'917.8
2018-Feb-10 06:30N 34°41' E 136°52'816.2
2018-Feb-10 06:00N 34°35' E 136°59'713.4
2018-Feb-10 05:30N 34°29' E 137°03'5 9.6
2018-Feb-10 05:00N 34°25' E 137°04'2914.6
2018-Feb-10 02:59N 33°59' E 136°47'1117.6
2018-Feb-10 02:22N 33°51' E 136°38'818.5
2018-Feb-10 01:56N 33°46' E 136°30'8012.5
2018-Feb-09 19:30N 33°60' E 134°55'917.4
2018-Feb-09 19:00N 34°08' E 134°56'713.1
2018-Feb-09 18:30N 34°15' E 134°58'1716.7
2018-Feb-09 17:30N 34°29' E 135°09'918.1
2018-Feb-09 17:00N 34°35' E 135°17'4 0.2
2018-Feb-08 22:30N 34°40' E 135°18'4 8.7
2018-Feb-08 22:00N 34°35' E 135°17'612.2
2018-Feb-08 21:30N 34°30' E 135°13'714.3
2018-Feb-08 21:00N 34°25' E 135°08'1515.1
2018-Feb-08 20:00N 34°12' E 134°58'23914.0
2018-Feb-08 03:00N 30°48' E 132°30'47319.7 010 / 121021.0 5.4 10.0 3.821.0
2018-Feb-07 03:00N 24°54' E 126°36'42817.8 050 / 191021.0 5.4 18.011.225.0
2018-Feb-06 03:00N 20°24' E 120°36'   050 / 291018.0 2.2 21.018.026.0
Track history (hours):
 
Tides and Currents Weather Stations Pressure Air Temp Water Temp Dewpoint Dewpoint Depression Visibility Wind Speed Wind Dir Waves Ship Positions

Nyk Olympus

Last reported at 2018-Feb-13 00:30 UTC. Time now 2018-Jul-20 10:46 UTC.
Position N 35°36' E 139°46'.
Warning: this ship's position is months out of date.

Length 335 m; draft 12.2 m.

Type: Other ship. MMSI: 372478000.

Date/timePositionNaut miles runAvg speedWind from/ knotsBaromVisibWave heightAir tempDewpointWater temp
2018-Feb-13 00:30N 35°36' E 139°46'0 0.0
2018-Feb-12 23:54N 35°36' E 139°46'0 0.0
2018-Feb-12 23:24N 35°36' E 139°46'0 0.0
2018-Feb-12 22:57N 35°36' E 139°46'0 0.7
2018-Feb-12 22:28N 35°36' E 139°47'3 5.8
2018-Feb-12 22:00N 35°34' E 139°49'4 7.9
2018-Feb-12 21:30N 35°31' E 139°53'611.7
2018-Feb-12 21:00N 35°26' E 139°49'713.3
2018-Feb-12 20:31N 35°21' E 139°45'611.5
2018-Feb-12 20:00N 35°15' E 139°47'612.4
2018-Feb-12 19:30N 35°09' E 139°46'611.5
2018-Feb-12 19:01N 35°04' E 139°44'612.0
2018-Feb-12 18:29N 34°58' E 139°41'611.9
2018-Feb-12 17:59N 34°52' E 139°39'511.3
2018-Feb-12 17:30N 34°47' E 139°36'611.2
2018-Feb-12 17:00N 34°42' E 139°35'31 9.7
2018-Feb-12 13:46N 34°32' E 138°58'511.3
2018-Feb-12 13:20N 34°32' E 138°52'1210.7
2018-Feb-12 12:15N 34°37' E 138°39'310.6
2018-Feb-12 12:00N 34°39' E 138°38'611.2
2018-Feb-12 11:30N 34°44' E 138°37'611.1
2018-Feb-12 11:00N 34°50' E 138°36'611.8
2018-Feb-12 10:30N 34°56' E 138°35'611.8
2018-Feb-12 10:00N 35°01' E 138°33'2 3.4
2018-Feb-12 09:30N 35°02' E 138°31'1 1.1
2018-Feb-12 08:58N 35°02' E 138°31'0 0.0
2018-Feb-12 08:28N 35°02' E 138°31'0 0.0
2018-Feb-12 07:58N 35°02' E 138°31'0 0.0
2018-Feb-12 07:28N 35°02' E 138°31'0 0.0
2018-Feb-12 07:00N 35°02' E 138°31'0 0.0
2018-Feb-12 06:28N 35°02' E 138°31'0 0.0
2018-Feb-12 05:58N 35°02' E 138°31'0 0.0
2018-Feb-12 05:25N 35°02' E 138°31'0 0.0
2018-Feb-12 04:58N 35°02' E 138°31'0 0.0
2018-Feb-12 04:28N 35°02' E 138°31'0 0.0
2018-Feb-12 03:58N 35°02' E 138°31'0 0.0
2018-Feb-12 03:28N 35°02' E 138°31'0 0.0
2018-Feb-12 02:58N 35°02' E 138°31'0 0.0
2018-Feb-12 02:28N 35°02' E 138°31'0 0.0
2018-Feb-12 01:55N 35°02' E 138°31'0 0.0
2018-Feb-12 01:28N 35°02' E 138°31'0 0.0
2018-Feb-12 00:58N 35°02' E 138°31'0 0.0
2018-Feb-12 00:28N 35°02' E 138°31'0 0.0
2018-Feb-11 23:58N 35°02' E 138°31'0 0.0
2018-Feb-11 23:28N 35°02' E 138°31'0 0.0
2018-Feb-11 22:58N 35°02' E 138°31'0 0.0
2018-Feb-11 22:28N 35°02' E 138°31'0 0.0
2018-Feb-11 21:58N 35°02' E 138°31'1 1.8
2018-Feb-11 21:30N 35°02' E 138°31'3 5.6
2018-Feb-11 21:00N 34°59' E 138°33'510.4
2018-Feb-11 20:30N 34°54' E 138°32'612.0
2018-Feb-11 20:00N 34°49' E 138°30'612.2
2018-Feb-11 19:30N 34°43' E 138°28'612.4
2018-Feb-11 18:59N 34°37' E 138°25'612.6
2018-Feb-11 18:30N 34°32' E 138°19'713.1
2018-Feb-11 17:59N 34°29' E 138°13'714.0
2018-Feb-11 17:30N 34°28' E 138°04'815.0
2018-Feb-11 17:00N 34°28' E 137°55'815.9
2018-Feb-11 16:30N 34°28' E 137°46'816.0
2018-Feb-11 16:00N 34°28' E 137°36'815.2
2018-Feb-11 15:30N 34°29' E 137°27'815.3
2018-Feb-11 15:00N 34°29' E 137°18'2814.3
2018-Feb-11 13:04N 34°42' E 136°48'219.3
2018-Feb-11 12:58N 34°44' E 136°47'918.8
2018-Feb-11 12:30N 34°53' E 136°46'715.0
2018-Feb-11 12:00N 34°60' E 136°49'2 3.2
2018-Feb-11 11:30N 35°01' E 136°49'0 0.5
2018-Feb-11 11:00N 35°02' E 136°49'0 0.0
2018-Feb-11 10:30N 35°02' E 136°49'0 0.0
2018-Feb-11 10:00N 35°02' E 136°49'0 0.0
2018-Feb-11 09:24N 35°02' E 136°49'0 0.0
2018-Feb-11 08:54N 35°02' E 136°49'0 0.0
2018-Feb-11 08:30N 35°02' E 136°49'0 0.0
2018-Feb-11 07:48N 35°02' E 136°49'0 0.0
2018-Feb-11 07:30N 35°02' E 136°49'0 0.0
2018-Feb-11 06:48N 35°02' E 136°49'0 0.0
2018-Feb-11 06:24N 35°02' E 136°49'0 0.0
2018-Feb-11 05:54N 35°02' E 136°49'0 0.0
2018-Feb-11 05:21N 35°02' E 136°49'0 0.0
2018-Feb-11 05:00N 35°02' E 136°49'0 0.0
2018-Feb-11 04:30N 35°02' E 136°49'0 0.0
2018-Feb-11 04:01N 35°02' E 136°49'0 0.0
2018-Feb-11 03:18N 35°02' E 136°49'0 0.0
2018-Feb-11 03:00N 35°02' E 136°49'0 0.0
2018-Feb-11 02:27N 35°02' E 136°49'0 0.0
2018-Feb-11 02:00N 35°02' E 136°49'0 0.0
2018-Feb-11 01:31N 35°02' E 136°49'0 0.0
2018-Feb-11 00:54N 35°02' E 136°49'0 0.0
2018-Feb-11 00:24N 35°02' E 136°49'0 0.0
2018-Feb-11 00:00N 35°02' E 136°49'0 0.0
2018-Feb-10 23:30N 35°02' E 136°49'0 0.0
2018-Feb-10 22:54N 35°02' E 136°49'0 0.0
2018-Feb-10 22:30N 35°02' E 136°49'0 0.0
2018-Feb-10 22:00N 35°02' E 136°49'0 0.0
2018-Feb-10 21:30N 35°02' E 136°49'0 0.0
2018-Feb-10 20:55N 35°02' E 136°49'0 0.0
2018-Feb-10 20:30N 35°02' E 136°49'0 0.0
2018-Feb-10 20:00N 35°02' E 136°49'0 0.0
2018-Feb-10 19:30N 35°02' E 136°49'0 0.0
2018-Feb-10 19:00N 35°02' E 136°49'0 0.0
2018-Feb-10 18:30N 35°02' E 136°49'0 0.0
2018-Feb-10 18:00N 35°02' E 136°49'0 0.0
2018-Feb-10 17:30N 35°02' E 136°49'0 0.0
2018-Feb-10 17:00N 35°02' E 136°49'0 0.0
2018-Feb-10 16:18N 35°02' E 136°49'0 0.0
2018-Feb-10 15:54N 35°02' E 136°49'0 0.0
2018-Feb-10 15:30N 35°02' E 136°49'0 0.0
2018-Feb-10 15:00N 35°02' E 136°49'0 0.0
2018-Feb-10 14:30N 35°02' E 136°49'0 0.0
2018-Feb-10 14:00N 35°02' E 136°49'0 0.0
2018-Feb-10 13:30N 35°02' E 136°49'0 0.0
2018-Feb-10 13:00N 35°02' E 136°49'0 0.0
2018-Feb-10 12:24N 35°02' E 136°49'0 0.0
2018-Feb-10 12:00N 35°02' E 136°49'0 0.0
2018-Feb-10 11:25N 35°02' E 136°49'0 0.0
2018-Feb-10 11:00N 35°02' E 136°49'0 0.0
2018-Feb-10 10:30N 35°02' E 136°49'0 0.0
2018-Feb-10 10:00N 35°02' E 136°49'0 0.0
2018-Feb-10 09:30N 35°02' E 136°49'0 0.0
2018-Feb-10 09:00N 35°02' E 136°49'0 0.0
2018-Feb-10 08:30N 35°02' E 136°49'1 2.3
2018-Feb-10 08:00N 35°01' E 136°50'611.1
2018-Feb-10 07:30N 34°56' E 136°47'815.0
2018-Feb-10 07:00N 34°49' E 136°47'917.8
2018-Feb-10 06:30N 34°41' E 136°52'816.2
2018-Feb-10 06:00N 34°35' E 136°59'713.4
2018-Feb-10 05:30N 34°29' E 137°03'5 9.6
2018-Feb-10 05:00N 34°25' E 137°04'2914.6
2018-Feb-10 02:59N 33°59' E 136°47'1117.6
2018-Feb-10 02:22N 33°51' E 136°38'818.5
2018-Feb-10 01:56N 33°46' E 136°30'8012.5
2018-Feb-09 19:30N 33°60' E 134°55'917.4
2018-Feb-09 19:00N 34°08' E 134°56'713.1
2018-Feb-09 18:30N 34°15' E 134°58'1716.7
2018-Feb-09 17:30N 34°29' E 135°09'918.1
2018-Feb-09 17:00N 34°35' E 135°17'4 0.2
2018-Feb-08 22:30N 34°40' E 135°18'4 8.7
2018-Feb-08 22:00N 34°35' E 135°17'612.2
2018-Feb-08 21:30N 34°30' E 135°13'714.3
2018-Feb-08 21:00N 34°25' E 135°08'1515.1
2018-Feb-08 20:00N 34°12' E 134°58'23914.0
2018-Feb-08 03:00N 30°48' E 132°30'47319.7 010 / 121021.0 5.4 10.0 3.821.0
2018-Feb-07 03:00N 24°54' E 126°36'42817.8 050 / 191021.0 5.4 18.011.225.0
2018-Feb-06 03:00N 20°24' E 120°36'   050 / 291018.0 2.2 21.018.026.0

Dump ship's entire track history